sensor_id;sensor_type;location;lat;lon;timestamp;P1;durP1;ratioP1;P2;durP2;ratioP2
79702;SDS011;69172;52.352;5.006;2023-10-09T00:00:54;53.65;;;24.48;;
79702;SDS011;69172;52.352;5.006;2023-10-09T00:03:43;53.95;;;24.83;;
79702;SDS011;69172;52.352;5.006;2023-10-09T00:06:09;53.20;;;23.40;;
79702;SDS011;69172;52.352;5.006;2023-10-09T00:08:38;51.28;;;23.55;;
79702;SDS011;69172;52.352;5.006;2023-10-09T00:11:04;50.67;;;24.08;;
79702;SDS011;69172;52.352;5.006;2023-10-09T00:13:41;49.08;;;24.52;;
79702;SDS011;69172;52.352;5.006;2023-10-09T00:16:37;49.72;;;22.02;;
79702;SDS011;69172;52.352;5.006;2023-10-09T00:19:08;50.60;;;22.50;;
79702;SDS011;69172;52.352;5.006;2023-10-09T00:21:48;49.65;;;22.50;;
79702;SDS011;69172;52.352;5.006;2023-10-09T00:24:14;48.88;;;22.13;;
79702;SDS011;69172;52.352;5.006;2023-10-09T00:26:51;42.70;;;21.17;;
79702;SDS011;69172;52.352;5.006;2023-10-09T00:29:19;45.38;;;22.05;;
79702;SDS011;69172;52.352;5.006;2023-10-09T00:31:49;40.85;;;20.70;;
79702;SDS011;69172;52.352;5.006;2023-10-09T00:34:29;40.72;;;21.45;;
79702;SDS011;69172;52.352;5.006;2023-10-09T00:36:54;40.45;;;20.60;;
79702;SDS011;69172;52.352;5.006;2023-10-09T00:39:22;40.75;;;20.02;;
79702;SDS011;69172;52.352;5.006;2023-10-09T00:42:08;38.00;;;19.40;;
79702;SDS011;69172;52.352;5.006;2023-10-09T00:44:38;38.53;;;19.85;;
79702;SDS011;69172;52.352;5.006;2023-10-09T00:47:07;48.22;;;21.25;;
79702;SDS011;69172;52.352;5.006;2023-10-09T00:49:47;44.17;;;20.90;;
79702;SDS011;69172;52.352;5.006;2023-10-09T00:52:15;42.50;;;20.83;;
79702;SDS011;69172;52.352;5.006;2023-10-09T00:54:53;37.10;;;20.45;;
79702;SDS011;69172;52.352;5.006;2023-10-09T00:57:19;38.55;;;20.65;;
79702;SDS011;69172;52.352;5.006;2023-10-09T00:59:50;35.67;;;18.60;;
79702;SDS011;69172;52.352;5.006;2023-10-09T01:02:25;42.50;;;19.42;;
79702;SDS011;69172;52.352;5.006;2023-10-09T01:05:01;42.88;;;20.20;;
79702;SDS011;69172;52.352;5.006;2023-10-09T01:07:43;39.72;;;19.63;;
79702;SDS011;69172;52.352;5.006;2023-10-09T01:10:10;39.35;;;19.92;;
79702;SDS011;69172;52.352;5.006;2023-10-09T01:12:36;40.70;;;20.63;;
79702;SDS011;69172;52.352;5.006;2023-10-09T01:15:08;36.55;;;18.65;;
79702;SDS011;69172;52.352;5.006;2023-10-09T01:17:41;39.72;;;18.83;;
79702;SDS011;69172;52.352;5.006;2023-10-09T01:20:10;38.38;;;18.48;;
79702;SDS011;69172;52.352;5.006;2023-10-09T01:22:42;33.92;;;17.60;;
79702;SDS011;69172;52.352;5.006;2023-10-09T01:25:08;36.65;;;18.35;;
79702;SDS011;69172;52.352;5.006;2023-10-09T01:27:35;33.13;;;18.08;;
79702;SDS011;69172;52.352;5.006;2023-10-09T01:30:05;35.83;;;18.95;;
79702;SDS011;69172;52.352;5.006;2023-10-09T01:32:31;39.88;;;19.73;;
79702;SDS011;69172;52.352;5.006;2023-10-09T01:35:00;40.40;;;18.42;;
79702;SDS011;69172;52.352;5.006;2023-10-09T01:37:26;34.75;;;18.77;;
79702;SDS011;69172;52.352;5.006;2023-10-09T01:39:55;37.05;;;17.52;;
79702;SDS011;69172;52.352;5.006;2023-10-09T01:42:41;37.08;;;18.88;;
79702;SDS011;69172;52.352;5.006;2023-10-09T01:45:12;36.25;;;16.73;;
79702;SDS011;69172;52.352;5.006;2023-10-09T01:47:41;33.90;;;17.55;;
79702;SDS011;69172;52.352;5.006;2023-10-09T01:50:12;36.50;;;16.75;;
79702;SDS011;69172;52.352;5.006;2023-10-09T01:52:44;31.83;;;17.05;;
79702;SDS011;69172;52.352;5.006;2023-10-09T01:55:11;35.55;;;17.05;;
79702;SDS011;69172;52.352;5.006;2023-10-09T01:57:58;37.10;;;16.73;;
79702;SDS011;69172;52.352;5.006;2023-10-09T02:00:43;37.47;;;17.15;;
79702;SDS011;69172;52.352;5.006;2023-10-09T02:03:15;35.85;;;17.05;;
79702;SDS011;69172;52.352;5.006;2023-10-09T02:05:44;34.72;;;17.40;;
79702;SDS011;69172;52.352;5.006;2023-10-09T02:08:09;30.27;;;15.25;;
79702;SDS011;69172;52.352;5.006;2023-10-09T02:10:38;33.65;;;16.55;;
79702;SDS011;69172;52.352;5.006;2023-10-09T02:13:05;35.22;;;14.80;;
79702;SDS011;69172;52.352;5.006;2023-10-09T02:15:32;28.92;;;14.82;;
79702;SDS011;69172;52.352;5.006;2023-10-09T02:18:29;26.98;;;13.68;;
79702;SDS011;69172;52.352;5.006;2023-10-09T02:23:32;28.88;;;14.23;;
79702;SDS011;69172;52.352;5.006;2023-10-09T02:26:11;27.52;;;11.75;;
79702;SDS011;69172;52.352;5.006;2023-10-09T02:28:52;27.08;;;12.30;;
79702;SDS011;69172;52.352;5.006;2023-10-09T02:31:30;25.52;;;11.55;;
79702;SDS011;69172;52.352;5.006;2023-10-09T02:34:07;23.92;;;11.02;;
79702;SDS011;69172;52.352;5.006;2023-10-09T02:36:36;26.13;;;12.20;;
79702;SDS011;69172;52.352;5.006;2023-10-09T02:39:28;21.52;;;9.82;;
79702;SDS011;69172;52.352;5.006;2023-10-09T02:41:55;22.55;;;9.18;;
79702;SDS011;69172;52.352;5.006;2023-10-09T02:44:44;20.50;;;9.10;;
79702;SDS011;69172;52.352;5.006;2023-10-09T02:47:17;20.20;;;8.27;;
79702;SDS011;69172;52.352;5.006;2023-10-09T02:49:51;20.85;;;8.35;;
79702;SDS011;69172;52.352;5.006;2023-10-09T02:52:18;17.42;;;8.07;;
79702;SDS011;69172;52.352;5.006;2023-10-09T02:54:44;21.05;;;9.75;;
79702;SDS011;69172;52.352;5.006;2023-10-09T02:57:12;20.00;;;7.82;;
79702;SDS011;69172;52.352;5.006;2023-10-09T02:59:48;18.77;;;8.50;;
79702;SDS011;69172;52.352;5.006;2023-10-09T03:02:17;19.10;;;7.82;;
79702;SDS011;69172;52.352;5.006;2023-10-09T03:04:44;15.50;;;7.38;;
79702;SDS011;69172;52.352;5.006;2023-10-09T03:07:09;15.77;;;7.40;;
79702;SDS011;69172;52.352;5.006;2023-10-09T03:09:35;16.42;;;7.10;;
79702;SDS011;69172;52.352;5.006;2023-10-09T03:12:01;18.40;;;7.15;;
79702;SDS011;69172;52.352;5.006;2023-10-09T03:14:28;17.88;;;7.28;;
79702;SDS011;69172;52.352;5.006;2023-10-09T03:16:56;18.50;;;7.50;;
79702;SDS011;69172;52.352;5.006;2023-10-09T03:19:22;19.85;;;7.30;;
79702;SDS011;69172;52.352;5.006;2023-10-09T03:21:50;17.42;;;7.00;;
79702;SDS011;69172;52.352;5.006;2023-10-09T03:24:15;16.05;;;6.80;;
79702;SDS011;69172;52.352;5.006;2023-10-09T03:26:41;17.70;;;6.63;;
79702;SDS011;69172;52.352;5.006;2023-10-09T03:29:09;14.45;;;5.40;;
79702;SDS011;69172;52.352;5.006;2023-10-09T03:31:37;14.65;;;6.10;;
79702;SDS011;69172;52.352;5.006;2023-10-09T03:34:04;19.02;;;5.80;;
79702;SDS011;69172;52.352;5.006;2023-10-09T03:36:30;16.60;;;6.05;;
79702;SDS011;69172;52.352;5.006;2023-10-09T03:38:56;15.55;;;5.70;;
79702;SDS011;69172;52.352;5.006;2023-10-09T03:41:23;15.45;;;6.10;;
79702;SDS011;69172;52.352;5.006;2023-10-09T03:43:51;12.65;;;5.43;;
79702;SDS011;69172;52.352;5.006;2023-10-09T03:46:19;17.77;;;5.63;;
79702;SDS011;69172;52.352;5.006;2023-10-09T03:48:58;13.27;;;5.68;;
79702;SDS011;69172;52.352;5.006;2023-10-09T03:51:28;14.43;;;5.78;;
79702;SDS011;69172;52.352;5.006;2023-10-09T03:53:54;17.40;;;5.65;;
79702;SDS011;69172;52.352;5.006;2023-10-09T03:56:20;15.07;;;5.57;;
79702;SDS011;69172;52.352;5.006;2023-10-09T03:58:49;14.95;;;5.80;;
79702;SDS011;69172;52.352;5.006;2023-10-09T04:01:16;16.33;;;5.43;;
79702;SDS011;69172;52.352;5.006;2023-10-09T04:03:49;13.88;;;5.63;;
79702;SDS011;69172;52.352;5.006;2023-10-09T04:06:20;11.85;;;5.78;;
79702;SDS011;69172;52.352;5.006;2023-10-09T04:08:47;15.15;;;5.03;;
79702;SDS011;69172;52.352;5.006;2023-10-09T04:11:14;15.43;;;6.57;;
79702;SDS011;69172;52.352;5.006;2023-10-09T04:13:47;17.13;;;5.32;;
79702;SDS011;69172;52.352;5.006;2023-10-09T04:16:14;20.13;;;6.03;;
79702;SDS011;69172;52.352;5.006;2023-10-09T04:18:57;15.27;;;5.57;;
79702;SDS011;69172;52.352;5.006;2023-10-09T04:21:24;13.85;;;4.65;;
79702;SDS011;69172;52.352;5.006;2023-10-09T04:24:00;16.13;;;5.03;;
79702;SDS011;69172;52.352;5.006;2023-10-09T04:26:41;13.45;;;5.25;;
79702;SDS011;69172;52.352;5.006;2023-10-09T04:29:10;14.30;;;5.45;;
79702;SDS011;69172;52.352;5.006;2023-10-09T04:31:44;13.38;;;5.35;;
79702;SDS011;69172;52.352;5.006;2023-10-09T04:34:19;15.63;;;5.78;;
79702;SDS011;69172;52.352;5.006;2023-10-09T04:36:51;14.15;;;5.57;;
79702;SDS011;69172;52.352;5.006;2023-10-09T04:39:26;14.20;;;5.22;;
79702;SDS011;69172;52.352;5.006;2023-10-09T04:41:54;18.98;;;6.22;;
79702;SDS011;69172;52.352;5.006;2023-10-09T04:44:41;14.52;;;5.97;;
79702;SDS011;69172;52.352;5.006;2023-10-09T04:47:25;16.90;;;6.13;;
79702;SDS011;69172;52.352;5.006;2023-10-09T04:50:01;17.15;;;6.35;;
79702;SDS011;69172;52.352;5.006;2023-10-09T04:53:01;14.10;;;5.85;;
79702;SDS011;69172;52.352;5.006;2023-10-09T04:55:42;13.95;;;6.00;;
79702;SDS011;69172;52.352;5.006;2023-10-09T04:58:21;13.60;;;5.75;;
79702;SDS011;69172;52.352;5.006;2023-10-09T05:00:51;17.35;;;6.05;;
79702;SDS011;69172;52.352;5.006;2023-10-09T05:03:28;15.82;;;4.95;;
79702;SDS011;69172;52.352;5.006;2023-10-09T05:05:55;13.30;;;5.38;;
79702;SDS011;69172;52.352;5.006;2023-10-09T05:08:32;13.23;;;5.43;;
79702;SDS011;69172;52.352;5.006;2023-10-09T05:11:11;17.70;;;6.38;;
79702;SDS011;69172;52.352;5.006;2023-10-09T05:14:04;12.45;;;5.43;;
79702;SDS011;69172;52.352;5.006;2023-10-09T05:16:39;14.23;;;5.10;;
79702;SDS011;69172;52.352;5.006;2023-10-09T05:19:21;17.58;;;5.40;;
79702;SDS011;69172;52.352;5.006;2023-10-09T05:22:06;16.95;;;5.25;;
79702;SDS011;69172;52.352;5.006;2023-10-09T05:24:41;12.93;;;4.80;;
79702;SDS011;69172;52.352;5.006;2023-10-09T05:27:10;16.58;;;5.50;;
79702;SDS011;69172;52.352;5.006;2023-10-09T05:29:50;15.98;;;5.70;;
79702;SDS011;69172;52.352;5.006;2023-10-09T05:32:25;17.63;;;5.30;;
79702;SDS011;69172;52.352;5.006;2023-10-09T05:34:54;21.17;;;5.43;;
79702;SDS011;69172;52.352;5.006;2023-10-09T05:37:30;17.55;;;4.82;;
79702;SDS011;69172;52.352;5.006;2023-10-09T05:40:00;14.43;;;5.20;;
79702;SDS011;69172;52.352;5.006;2023-10-09T05:42:28;13.93;;;5.15;;
79702;SDS011;69172;52.352;5.006;2023-10-09T05:45:03;19.20;;;5.93;;
79702;SDS011;69172;52.352;5.006;2023-10-09T05:47:43;17.23;;;5.22;;
79702;SDS011;69172;52.352;5.006;2023-10-09T05:50:26;12.80;;;4.97;;
79702;SDS011;69172;52.352;5.006;2023-10-09T05:52:56;16.45;;;5.05;;
79702;SDS011;69172;52.352;5.006;2023-10-09T05:55:22;13.63;;;4.70;;
79702;SDS011;69172;52.352;5.006;2023-10-09T05:58:07;15.23;;;4.68;;
79702;SDS011;69172;52.352;5.006;2023-10-09T06:00:51;13.55;;;5.22;;
79702;SDS011;69172;52.352;5.006;2023-10-09T06:03:35;16.10;;;5.63;;
79702;SDS011;69172;52.352;5.006;2023-10-09T06:06:13;14.52;;;4.88;;
79702;SDS011;69172;52.352;5.006;2023-10-09T06:09:04;13.20;;;5.22;;
79702;SDS011;69172;52.352;5.006;2023-10-09T06:11:45;14.70;;;5.70;;
79702;SDS011;69172;52.352;5.006;2023-10-09T06:14:17;14.73;;;5.55;;
79702;SDS011;69172;52.352;5.006;2023-10-09T06:16:56;13.82;;;5.13;;
79702;SDS011;69172;52.352;5.006;2023-10-09T06:19:26;18.65;;;5.50;;
79702;SDS011;69172;52.352;5.006;2023-10-09T06:21:58;15.98;;;5.47;;
79702;SDS011;69172;52.352;5.006;2023-10-09T06:24:44;16.63;;;5.45;;
79702;SDS011;69172;52.352;5.006;2023-10-09T06:27:18;14.15;;;5.60;;
79702;SDS011;69172;52.352;5.006;2023-10-09T06:29:58;20.98;;;5.60;;
79702;SDS011;69172;52.352;5.006;2023-10-09T06:32:43;14.95;;;5.75;;
79702;SDS011;69172;52.352;5.006;2023-10-09T06:35:33;16.95;;;5.85;;
79702;SDS011;69172;52.352;5.006;2023-10-09T06:38:03;14.23;;;5.35;;
79702;SDS011;69172;52.352;5.006;2023-10-09T06:43:22;19.83;;;5.82;;
79702;SDS011;69172;52.352;5.006;2023-10-09T06:45:56;17.52;;;5.53;;
79702;SDS011;69172;52.352;5.006;2023-10-09T06:48:25;17.48;;;5.32;;
79702;SDS011;69172;52.352;5.006;2023-10-09T06:51:04;16.98;;;6.32;;
79702;SDS011;69172;52.352;5.006;2023-10-09T06:53:53;14.18;;;5.50;;
79702;SDS011;69172;52.352;5.006;2023-10-09T06:56:20;16.92;;;5.72;;
79702;SDS011;69172;52.352;5.006;2023-10-09T06:58:49;17.65;;;6.47;;
79702;SDS011;69172;52.352;5.006;2023-10-09T07:01:21;15.48;;;6.72;;
79702;SDS011;69172;52.352;5.006;2023-10-09T07:03:54;18.38;;;5.80;;
79702;SDS011;69172;52.352;5.006;2023-10-09T07:06:35;12.50;;;5.30;;
79702;SDS011;69172;52.352;5.006;2023-10-09T07:09:02;20.58;;;6.68;;
79702;SDS011;69172;52.352;5.006;2023-10-09T07:11:34;15.48;;;5.45;;
79702;SDS011;69172;52.352;5.006;2023-10-09T07:16:32;16.75;;;5.53;;
79702;SDS011;69172;52.352;5.006;2023-10-09T07:19:05;16.40;;;6.35;;
79702;SDS011;69172;52.352;5.006;2023-10-09T07:21:49;19.52;;;6.10;;
79702;SDS011;69172;52.352;5.006;2023-10-09T07:24:19;16.50;;;6.13;;
79702;SDS011;69172;52.352;5.006;2023-10-09T07:26:51;17.85;;;5.95;;
79702;SDS011;69172;52.352;5.006;2023-10-09T07:29:21;21.60;;;6.97;;
79702;SDS011;69172;52.352;5.006;2023-10-09T07:31:52;16.80;;;5.95;;
79702;SDS011;69172;52.352;5.006;2023-10-09T07:34:23;15.43;;;6.03;;
79702;SDS011;69172;52.352;5.006;2023-10-09T07:37:20;17.45;;;6.22;;
79702;SDS011;69172;52.352;5.006;2023-10-09T07:40:04;15.77;;;5.82;;
79702;SDS011;69172;52.352;5.006;2023-10-09T07:42:33;15.38;;;5.35;;
79702;SDS011;69172;52.352;5.006;2023-10-09T07:45:02;20.30;;;5.90;;
79702;SDS011;69172;52.352;5.006;2023-10-09T07:47:59;20.00;;;6.88;;
79702;SDS011;69172;52.352;5.006;2023-10-09T07:50:24;19.67;;;6.45;;
79702;SDS011;69172;52.352;5.006;2023-10-09T07:52:57;15.52;;;5.35;;
79702;SDS011;69172;52.352;5.006;2023-10-09T07:55:42;14.45;;;5.40;;
79702;SDS011;69172;52.352;5.006;2023-10-09T07:58:19;14.35;;;6.13;;
79702;SDS011;69172;52.352;5.006;2023-10-09T08:00:51;15.93;;;5.70;;
79702;SDS011;69172;52.352;5.006;2023-10-09T08:03:41;17.60;;;6.07;;
79702;SDS011;69172;52.352;5.006;2023-10-09T08:06:12;15.05;;;6.47;;
79702;SDS011;69172;52.352;5.006;2023-10-09T08:08:57;12.52;;;5.88;;
79702;SDS011;69172;52.352;5.006;2023-10-09T08:11:38;19.25;;;5.28;;
79702;SDS011;69172;52.352;5.006;2023-10-09T08:14:10;16.48;;;5.65;;
79702;SDS011;69172;52.352;5.006;2023-10-09T08:16:55;25.27;;;5.95;;
79702;SDS011;69172;52.352;5.006;2023-10-09T08:19:46;15.23;;;5.22;;
79702;SDS011;69172;52.352;5.006;2023-10-09T08:22:23;18.40;;;5.82;;
79702;SDS011;69172;52.352;5.006;2023-10-09T08:24:56;16.25;;;6.07;;
79702;SDS011;69172;52.352;5.006;2023-10-09T08:27:28;16.23;;;5.93;;
79702;SDS011;69172;52.352;5.006;2023-10-09T08:30:01;17.27;;;5.95;;
79702;SDS011;69172;52.352;5.006;2023-10-09T08:32:43;16.10;;;5.20;;
79702;SDS011;69172;52.352;5.006;2023-10-09T08:35:28;18.08;;;5.82;;
79702;SDS011;69172;52.352;5.006;2023-10-09T08:38:13;17.23;;;6.00;;
79702;SDS011;69172;52.352;5.006;2023-10-09T08:40:40;16.60;;;5.03;;
79702;SDS011;69172;52.352;5.006;2023-10-09T08:43:13;14.00;;;5.38;;
79702;SDS011;69172;52.352;5.006;2023-10-09T08:45:40;15.95;;;5.60;;
79702;SDS011;69172;52.352;5.006;2023-10-09T08:48:10;14.93;;;5.28;;
79702;SDS011;69172;52.352;5.006;2023-10-09T08:50:40;14.73;;;5.90;;
79702;SDS011;69172;52.352;5.006;2023-10-09T08:53:10;15.00;;;5.43;;
79702;SDS011;69172;52.352;5.006;2023-10-09T08:55:36;14.57;;;5.57;;
79702;SDS011;69172;52.352;5.006;2023-10-09T08:58:03;14.57;;;5.68;;
79702;SDS011;69172;52.352;5.006;2023-10-09T09:00:35;15.98;;;4.95;;
79702;SDS011;69172;52.352;5.006;2023-10-09T09:03:07;16.17;;;5.40;;
79702;SDS011;69172;52.352;5.006;2023-10-09T09:05:33;14.75;;;5.50;;
79702;SDS011;69172;52.352;5.006;2023-10-09T09:08:01;17.58;;;5.53;;
79702;SDS011;69172;52.352;5.006;2023-10-09T09:10:28;16.20;;;5.18;;
79702;SDS011;69172;52.352;5.006;2023-10-09T09:13:03;15.50;;;5.38;;
79702;SDS011;69172;52.352;5.006;2023-10-09T09:15:30;14.60;;;5.38;;
79702;SDS011;69172;52.352;5.006;2023-10-09T09:18:03;16.38;;;5.53;;
79702;SDS011;69172;52.352;5.006;2023-10-09T09:20:36;16.55;;;5.65;;
79702;SDS011;69172;52.352;5.006;2023-10-09T09:23:10;14.13;;;5.53;;
79702;SDS011;69172;52.352;5.006;2023-10-09T09:28:10;15.50;;;5.57;;
79702;SDS011;69172;52.352;5.006;2023-10-09T09:30:37;14.48;;;4.88;;
79702;SDS011;69172;52.352;5.006;2023-10-09T09:33:18;14.80;;;4.68;;
79702;SDS011;69172;52.352;5.006;2023-10-09T09:36:00;19.27;;;5.35;;
79702;SDS011;69172;52.352;5.006;2023-10-09T09:38:30;14.95;;;5.82;;
79702;SDS011;69172;52.352;5.006;2023-10-09T09:41:16;14.05;;;5.30;;
79702;SDS011;69172;52.352;5.006;2023-10-09T09:43:56;16.83;;;5.35;;
79702;SDS011;69172;52.352;5.006;2023-10-09T09:46:29;15.57;;;5.95;;
79702;SDS011;69172;52.352;5.006;2023-10-09T09:49:01;14.97;;;5.97;;
79702;SDS011;69172;52.352;5.006;2023-10-09T09:51:31;13.52;;;6.00;;
79702;SDS011;69172;52.352;5.006;2023-10-09T09:53:57;19.33;;;5.85;;
79702;SDS011;69172;52.352;5.006;2023-10-09T09:56:26;18.00;;;5.70;;
79702;SDS011;69172;52.352;5.006;2023-10-09T09:58:56;17.88;;;5.70;;
79702;SDS011;69172;52.352;5.006;2023-10-09T10:01:26;17.90;;;6.20;;
79702;SDS011;69172;52.352;5.006;2023-10-09T10:06:31;19.65;;;6.97;;
79702;SDS011;69172;52.352;5.006;2023-10-09T10:08:58;18.23;;;5.57;;
79702;SDS011;69172;52.352;5.006;2023-10-09T10:11:43;18.20;;;5.93;;
79702;SDS011;69172;52.352;5.006;2023-10-09T10:14:14;15.80;;;6.07;;
79702;SDS011;69172;52.352;5.006;2023-10-09T10:17:09;15.10;;;4.93;;
79702;SDS011;69172;52.352;5.006;2023-10-09T10:19:59;16.17;;;5.53;;
79702;SDS011;69172;52.352;5.006;2023-10-09T10:22:42;17.10;;;5.90;;
79702;SDS011;69172;52.352;5.006;2023-10-09T10:25:33;16.85;;;5.30;;
79702;SDS011;69172;52.352;5.006;2023-10-09T10:31:09;16.67;;;5.32;;
79702;SDS011;69172;52.352;5.006;2023-10-09T10:36:24;14.68;;;5.25;;
79702;SDS011;69172;52.352;5.006;2023-10-09T10:39:06;14.45;;;5.82;;
79702;SDS011;69172;52.352;5.006;2023-10-09T10:41:53;12.98;;;5.30;;
79702;SDS011;69172;52.352;5.006;2023-10-09T10:44:32;14.57;;;5.65;;
79702;SDS011;69172;52.352;5.006;2023-10-09T10:47:05;16.65;;;5.57;;
79702;SDS011;69172;52.352;5.006;2023-10-09T10:49:46;15.48;;;5.63;;
79702;SDS011;69172;52.352;5.006;2023-10-09T10:52:22;15.00;;;4.93;;
79702;SDS011;69172;52.352;5.006;2023-10-09T10:55:13;13.88;;;4.85;;
79702;SDS011;69172;52.352;5.006;2023-10-09T10:58:15;16.33;;;5.65;;
79702;SDS011;69172;52.352;5.006;2023-10-09T11:00:51;14.02;;;5.13;;
79702;SDS011;69172;52.352;5.006;2023-10-09T11:03:24;14.23;;;5.10;;
79702;SDS011;69172;52.352;5.006;2023-10-09T11:06:29;13.13;;;5.28;;
79702;SDS011;69172;52.352;5.006;2023-10-09T11:09:03;16.50;;;4.82;;
79702;SDS011;69172;52.352;5.006;2023-10-09T11:11:51;16.30;;;4.82;;
79702;SDS011;69172;52.352;5.006;2023-10-09T11:14:20;13.02;;;4.70;;
79702;SDS011;69172;52.352;5.006;2023-10-09T11:16:51;13.45;;;5.53;;
79702;SDS011;69172;52.352;5.006;2023-10-09T11:19:23;17.50;;;5.35;;
79702;SDS011;69172;52.352;5.006;2023-10-09T11:21:52;19.00;;;5.07;;
79702;SDS011;69172;52.352;5.006;2023-10-09T11:24:25;15.45;;;5.20;;
79702;SDS011;69172;52.352;5.006;2023-10-09T11:26:52;13.55;;;5.00;;
79702;SDS011;69172;52.352;5.006;2023-10-09T11:29:24;13.05;;;5.10;;
79702;SDS011;69172;52.352;5.006;2023-10-09T11:32:02;17.65;;;5.10;;
79702;SDS011;69172;52.352;5.006;2023-10-09T11:34:34;16.02;;;4.90;;
79702;SDS011;69172;52.352;5.006;2023-10-09T11:37:01;16.65;;;5.30;;
79702;SDS011;69172;52.352;5.006;2023-10-09T11:39:34;14.40;;;4.85;;
79702;SDS011;69172;52.352;5.006;2023-10-09T11:42:09;12.60;;;4.13;;
79702;SDS011;69172;52.352;5.006;2023-10-09T11:44:41;12.82;;;4.93;;
79702;SDS011;69172;52.352;5.006;2023-10-09T11:47:10;18.38;;;4.97;;
79702;SDS011;69172;52.352;5.006;2023-10-09T11:49:52;13.57;;;5.20;;
79702;SDS011;69172;52.352;5.006;2023-10-09T11:52:55;15.50;;;4.88;;
79702;SDS011;69172;52.352;5.006;2023-10-09T11:55:43;13.93;;;4.95;;
79702;SDS011;69172;52.352;5.006;2023-10-09T11:58:13;11.95;;;4.85;;
79702;SDS011;69172;52.352;5.006;2023-10-09T12:00:49;14.32;;;4.70;;
79702;SDS011;69172;52.352;5.006;2023-10-09T12:03:23;12.75;;;4.70;;
79702;SDS011;69172;52.352;5.006;2023-10-09T12:05:54;13.57;;;4.90;;
79702;SDS011;69172;52.352;5.006;2023-10-09T12:08:23;13.38;;;4.78;;
79702;SDS011;69172;52.352;5.006;2023-10-09T12:10:54;12.98;;;4.75;;
79702;SDS011;69172;52.352;5.006;2023-10-09T12:13:23;13.07;;;4.45;;
79702;SDS011;69172;52.352;5.006;2023-10-09T12:15:50;16.25;;;4.93;;
79702;SDS011;69172;52.352;5.006;2023-10-09T12:18:17;13.55;;;4.80;;
79702;SDS011;69172;52.352;5.006;2023-10-09T12:20:43;14.18;;;4.32;;
79702;SDS011;69172;52.352;5.006;2023-10-09T12:23:21;11.57;;;4.00;;
79702;SDS011;69172;52.352;5.006;2023-10-09T12:25:48;16.85;;;4.90;;
79702;SDS011;69172;52.352;5.006;2023-10-09T12:30:46;14.30;;;5.07;;
79702;SDS011;69172;52.352;5.006;2023-10-09T12:33:18;13.27;;;4.55;;
79702;SDS011;69172;52.352;5.006;2023-10-09T12:35:54;15.02;;;4.90;;
79702;SDS011;69172;52.352;5.006;2023-10-09T12:38:32;15.32;;;5.22;;
79702;SDS011;69172;52.352;5.006;2023-10-09T12:41:04;14.98;;;5.53;;
79702;SDS011;69172;52.352;5.006;2023-10-09T12:43:43;16.55;;;5.30;;
79702;SDS011;69172;52.352;5.006;2023-10-09T12:46:10;17.63;;;5.78;;
79702;SDS011;69172;52.352;5.006;2023-10-09T12:48:39;17.65;;;4.97;;
79702;SDS011;69172;52.352;5.006;2023-10-09T12:51:11;16.50;;;6.07;;
79702;SDS011;69172;52.352;5.006;2023-10-09T12:53:42;17.35;;;5.50;;
79702;SDS011;69172;52.352;5.006;2023-10-09T12:56:08;17.33;;;5.63;;
79702;SDS011;69172;52.352;5.006;2023-10-09T12:58:34;20.73;;;5.38;;
79702;SDS011;69172;52.352;5.006;2023-10-09T13:01:03;17.83;;;6.07;;
79702;SDS011;69172;52.352;5.006;2023-10-09T13:03:36;18.55;;;5.05;;
79702;SDS011;69172;52.352;5.006;2023-10-09T13:06:05;14.05;;;4.82;;
79702;SDS011;69172;52.352;5.006;2023-10-09T13:08:37;13.90;;;4.75;;
79702;SDS011;69172;52.352;5.006;2023-10-09T13:11:06;16.63;;;5.47;;
79702;SDS011;69172;52.352;5.006;2023-10-09T13:13:36;16.35;;;5.43;;
79702;SDS011;69172;52.352;5.006;2023-10-09T13:16:08;21.98;;;5.55;;
79702;SDS011;69172;52.352;5.006;2023-10-09T13:18:40;14.02;;;5.22;;
79702;SDS011;69172;52.352;5.006;2023-10-09T13:21:15;17.98;;;5.60;;
79702;SDS011;69172;52.352;5.006;2023-10-09T13:24:02;16.45;;;5.22;;
79702;SDS011;69172;52.352;5.006;2023-10-09T13:26:29;18.25;;;5.38;;
79702;SDS011;69172;52.352;5.006;2023-10-09T13:28:56;14.05;;;5.28;;
79702;SDS011;69172;52.352;5.006;2023-10-09T13:31:23;13.40;;;5.15;;
79702;SDS011;69172;52.352;5.006;2023-10-09T13:33:51;14.80;;;5.57;;
79702;SDS011;69172;52.352;5.006;2023-10-09T13:36:20;16.85;;;5.57;;
79702;SDS011;69172;52.352;5.006;2023-10-09T13:38:55;14.70;;;4.97;;
79702;SDS011;69172;52.352;5.006;2023-10-09T13:41:22;16.38;;;5.50;;
79702;SDS011;69172;52.352;5.006;2023-10-09T13:43:53;12.85;;;5.15;;
79702;SDS011;69172;52.352;5.006;2023-10-09T13:46:19;15.05;;;5.63;;
79702;SDS011;69172;52.352;5.006;2023-10-09T13:48:44;18.92;;;5.45;;
79702;SDS011;69172;52.352;5.006;2023-10-09T13:51:12;15.35;;;5.57;;
79702;SDS011;69172;52.352;5.006;2023-10-09T13:53:48;16.20;;;5.68;;
79702;SDS011;69172;52.352;5.006;2023-10-09T13:56:16;16.40;;;4.82;;
79702;SDS011;69172;52.352;5.006;2023-10-09T13:58:52;15.88;;;5.63;;
79702;SDS011;69172;52.352;5.006;2023-10-09T14:01:18;23.08;;;5.53;;
79702;SDS011;69172;52.352;5.006;2023-10-09T14:03:57;15.63;;;5.20;;
79702;SDS011;69172;52.352;5.006;2023-10-09T14:06:25;17.65;;;6.03;;
79702;SDS011;69172;52.352;5.006;2023-10-09T14:09:02;17.15;;;6.00;;
79702;SDS011;69172;52.352;5.006;2023-10-09T14:11:34;14.88;;;6.13;;
79702;SDS011;69172;52.352;5.006;2023-10-09T14:14:03;15.00;;;6.13;;
79702;SDS011;69172;52.352;5.006;2023-10-09T14:16:34;15.43;;;5.22;;
79702;SDS011;69172;52.352;5.006;2023-10-09T14:19:08;18.55;;;6.30;;
79702;SDS011;69172;52.352;5.006;2023-10-09T14:21:44;16.70;;;6.50;;
79702;SDS011;69172;52.352;5.006;2023-10-09T14:24:17;17.17;;;6.40;;
79702;SDS011;69172;52.352;5.006;2023-10-09T14:26:45;16.65;;;6.03;;
79702;SDS011;69172;52.352;5.006;2023-10-09T14:29:12;14.50;;;5.80;;
79702;SDS011;69172;52.352;5.006;2023-10-09T14:31:46;17.10;;;6.30;;
79702;SDS011;69172;52.352;5.006;2023-10-09T14:34:25;15.18;;;5.47;;
79702;SDS011;69172;52.352;5.006;2023-10-09T14:36:55;12.65;;;5.43;;
79702;SDS011;69172;52.352;5.006;2023-10-09T14:39:20;17.35;;;6.15;;
79702;SDS011;69172;52.352;5.006;2023-10-09T14:41:51;13.90;;;5.75;;
79702;SDS011;69172;52.352;5.006;2023-10-09T14:44:19;17.67;;;6.22;;
79702;SDS011;69172;52.352;5.006;2023-10-09T14:46:53;16.05;;;6.25;;
79702;SDS011;69172;52.352;5.006;2023-10-09T14:49:20;17.23;;;7.00;;
79702;SDS011;69172;52.352;5.006;2023-10-09T14:51:46;17.45;;;6.68;;
79702;SDS011;69172;52.352;5.006;2023-10-09T14:54:12;18.60;;;7.28;;
79702;SDS011;69172;52.352;5.006;2023-10-09T14:56:47;19.30;;;8.40;;
79702;SDS011;69172;52.352;5.006;2023-10-09T14:59:16;16.92;;;8.30;;
79702;SDS011;69172;52.352;5.006;2023-10-09T15:01:44;18.08;;;8.55;;
79702;SDS011;69172;52.352;5.006;2023-10-09T15:04:09;17.30;;;7.50;;
79702;SDS011;69172;52.352;5.006;2023-10-09T15:06:39;17.05;;;7.85;;
79702;SDS011;69172;52.352;5.006;2023-10-09T15:09:05;17.83;;;7.80;;
79702;SDS011;69172;52.352;5.006;2023-10-09T15:11:34;18.52;;;8.00;;
79702;SDS011;69172;52.352;5.006;2023-10-09T15:14:02;20.25;;;8.25;;
79702;SDS011;69172;52.352;5.006;2023-10-09T15:16:30;24.05;;;8.60;;
79702;SDS011;69172;52.352;5.006;2023-10-09T15:18:56;17.70;;;7.80;;
79702;SDS011;69172;52.352;5.006;2023-10-09T15:21:28;15.27;;;7.80;;
79702;SDS011;69172;52.352;5.006;2023-10-09T15:23:57;18.38;;;8.98;;
79702;SDS011;69172;52.352;5.006;2023-10-09T15:26:23;18.42;;;7.75;;
79702;SDS011;69172;52.352;5.006;2023-10-09T15:28:52;20.48;;;7.50;;
79702;SDS011;69172;52.352;5.006;2023-10-09T15:31:18;16.77;;;7.95;;